createdAt,value
2023-03-22T00:00:35.405Z,12.10
2023-03-22T00:02:39.202Z,12.08
2023-03-22T00:04:43.660Z,12.14
2023-03-22T00:06:48.597Z,12.05
2023-03-22T00:08:53.164Z,12.05
2023-03-22T00:10:56.600Z,11.93
2023-03-22T00:13:00.266Z,11.71
2023-03-22T00:15:03.692Z,11.60
2023-03-22T00:17:07.165Z,11.95
2023-03-22T00:19:10.670Z,12.04
2023-03-22T00:21:15.782Z,11.39
2023-03-22T00:23:21.102Z,11.83
2023-03-22T00:25:25.595Z,12.07
2023-03-22T00:27:29.056Z,11.93
2023-03-22T00:29:32.732Z,11.99
2023-03-22T00:31:36.278Z,11.94
2023-03-22T00:33:39.960Z,12.02
2023-03-22T00:35:49.573Z,12.09
2023-03-22T00:37:52.951Z,12.11
2023-03-22T00:39:57.871Z,12.05
2023-03-22T00:42:01.375Z,12.07
2023-03-22T00:44:04.812Z,12.20
2023-03-22T00:46:08.749Z,12.26
2023-03-22T00:48:13.401Z,12.34
2023-03-22T00:50:17.067Z,12.40
2023-03-22T00:52:21.409Z,12.38
2023-03-22T00:54:24.804Z,12.35
2023-03-22T00:56:30.270Z,12.47
2023-03-22T00:58:41.031Z,12.41
2023-03-22T01:00:45.312Z,12.43
2023-03-22T01:02:48.718Z,12.49
2023-03-22T01:04:57.171Z,12.48
2023-03-22T01:07:01.484Z,12.26
2023-03-22T01:09:05.815Z,11.98
2023-03-22T01:11:10.783Z,12.48
2023-03-22T01:13:17.840Z,12.35
2023-03-22T01:15:23.328Z,12.36
2023-03-22T01:17:28.390Z,12.40
2023-03-22T01:19:32.021Z,12.31
2023-03-22T01:21:35.475Z,12.36
2023-03-22T01:23:39.936Z,12.26
2023-03-22T01:25:43.771Z,12.21
2023-03-22T01:27:47.936Z,12.24
2023-03-22T01:29:53.056Z,12.11
2023-03-22T01:31:56.515Z,12.17
2023-03-22T01:34:00.166Z,12.19
2023-03-22T01:36:04.890Z,12.15
2023-03-22T01:38:10.413Z,12.16
2023-03-22T01:40:20.942Z,12.21
2023-03-22T01:42:25.302Z,12.22
2023-03-22T01:44:31.127Z,12.23
2023-03-22T01:46:37.946Z,12.20
2023-03-22T01:48:46.045Z,12.24
2023-03-22T01:50:59.804Z,12.26
2023-03-22T01:53:05.124Z,12.17
2023-03-22T01:55:14.154Z,12.12
2023-03-22T01:57:22.134Z,12.03
2023-03-22T01:59:26.379Z,12.02
2023-03-22T02:02:00.156Z,11.95
2023-03-22T02:04:09.046Z,11.88
2023-03-22T02:06:13.311Z,11.32
2023-03-22T02:08:17.285Z,11.91
2023-03-22T02:10:33.503Z,11.26
2023-03-22T02:12:50.498Z,11.84
2023-03-22T02:15:24.246Z,11.76
2023-03-22T02:17:59.713Z,11.69
2023-03-22T02:20:38.800Z,11.59
2023-03-22T02:23:27.670Z,11.61
2023-03-22T02:26:06.763Z,11.58
2023-03-22T02:28:28.561Z,11.50
2023-03-22T02:30:56.420Z,11.48
2023-03-22T02:33:41.878Z,11.35
2023-03-22T02:35:58.607Z,11.51
2023-03-22T02:38:36.786Z,11.49
2023-03-22T02:40:50.943Z,11.37
2023-03-22T02:43:00.325Z,11.31
2023-03-22T02:45:10.665Z,11.35
2023-03-22T02:47:22.870Z,11.34
2023-03-22T02:49:34.462Z,11.30
2023-03-22T02:51:43.676Z,11.30
2023-03-22T02:53:53.254Z,11.29
2023-03-22T02:56:01.264Z,11.13
2023-03-22T02:58:11.401Z,11.21
2023-03-22T03:00:18.392Z,11.24
2023-03-22T03:02:23.339Z,11.25
2023-03-22T03:04:31.104Z,11.30
2023-03-22T03:06:39.888Z,11.30
2023-03-22T03:08:46.768Z,11.29
2023-03-22T03:10:52.148Z,11.27
2023-03-22T03:12:57.289Z,11.31
2023-03-22T03:15:00.670Z,11.33
2023-03-22T03:17:18.870Z,11.33
2023-03-22T03:19:32.112Z,11.24
2023-03-22T03:21:45.218Z,11.19
2023-03-22T03:23:57.885Z,11.15
2023-03-22T03:26:07.256Z,11.22
2023-03-22T03:28:22.896Z,10.61
2023-03-22T03:30:34.534Z,11.21
2023-03-22T03:32:43.902Z,11.24
2023-03-22T03:34:52.793Z,11.24
2023-03-22T03:37:01.300Z,10.68
2023-03-22T03:39:09.915Z,11.28
2023-03-22T03:41:17.363Z,11.26
2023-03-22T03:43:23.037Z,11.26
2023-03-22T03:45:27.055Z,10.68
2023-03-22T03:47:32.152Z,11.32
2023-03-22T03:49:36.287Z,11.30
2023-03-22T03:51:50.280Z,11.20
2023-03-22T03:53:53.638Z,11.08
2023-03-22T03:55:58.968Z,11.05
2023-03-22T03:58:09.417Z,11.05
2023-03-22T04:00:15.879Z,11.03
2023-03-22T04:02:45.807Z,10.65
2023-03-22T04:05:07.385Z,11.27
2023-03-22T04:07:10.971Z,11.26
2023-03-22T04:09:16.167Z,11.30
2023-03-22T04:11:23.631Z,11.24
2023-03-22T04:13:30.632Z,11.27
2023-03-22T04:15:38.696Z,11.26
2023-03-22T04:17:49.640Z,11.24
2023-03-22T04:19:56.506Z,11.20
2023-03-22T04:22:00.351Z,11.20
2023-03-22T04:24:04.150Z,11.07
2023-03-22T04:26:12.840Z,11.17
2023-03-22T04:28:28.256Z,11.11
2023-03-22T04:30:36.491Z,11.17
2023-03-22T04:32:56.742Z,11.14
2023-03-22T04:35:10.871Z,11.12
2023-03-22T04:37:14.533Z,11.13
2023-03-22T04:39:45.373Z,11.10
2023-03-22T04:42:06.185Z,11.17
2023-03-22T04:44:10.825Z,11.23
2023-03-22T04:46:21.860Z,11.22
2023-03-22T04:48:41.479Z,11.19
2023-03-22T04:50:46.927Z,11.11
2023-03-22T04:52:50.932Z,11.06
2023-03-22T04:54:54.389Z,11.02
2023-03-22T04:56:57.838Z,11.03
2023-03-22T04:59:03.618Z,11.01
2023-03-22T05:01:07.850Z,10.96
2023-03-22T05:03:14.503Z,10.94
2023-03-22T05:05:22.036Z,10.99
2023-03-22T05:07:27.351Z,11.08
2023-03-22T05:09:34.407Z,11.11
2023-03-22T05:11:38.651Z,11.06
2023-03-22T05:14:00.912Z,11.01
2023-03-22T05:16:05.685Z,10.97
2023-03-22T05:18:21.657Z,10.99
2023-03-22T05:20:26.748Z,10.91
2023-03-22T05:22:43.156Z,10.69
2023-03-22T05:24:47.723Z,10.73
2023-03-22T05:26:57.081Z,10.67
2023-03-22T05:29:02.646Z,10.64
2023-03-22T05:31:34.467Z,10.57
2023-03-22T05:33:39.245Z,10.60
2023-03-22T05:35:45.865Z,10.61
2023-03-22T05:37:49.306Z,10.62
2023-03-22T05:39:53.235Z,10.63
2023-03-22T05:42:00.681Z,10.59
2023-03-22T05:44:05.015Z,10.68
2023-03-22T05:46:11.425Z,10.68
2023-03-22T05:48:31.896Z,10.68
2023-03-22T05:50:35.798Z,10.62
2023-03-22T05:52:42.765Z,10.57
2023-03-22T05:55:17.561Z,10.65
2023-03-22T05:57:21.764Z,10.64
2023-03-22T05:59:25.595Z,10.15
2023-03-22T06:01:29.044Z,10.60
2023-03-22T06:03:51.906Z,10.62
2023-03-22T06:06:15.876Z,10.57
2023-03-22T06:08:30.249Z,10.65
2023-03-22T06:10:36.171Z,10.67
2023-03-22T06:12:39.839Z,10.61
2023-03-22T06:14:48.627Z,10.74
2023-03-22T06:17:15.079Z,10.04
2023-03-22T06:19:18.572Z,10.68
2023-03-22T06:21:22.428Z,10.71
2023-03-22T06:23:26.042Z,10.75
2023-03-22T06:25:31.900Z,10.70
2023-03-22T06:27:36.231Z,10.81
2023-03-22T06:29:39.906Z,10.78
2023-03-22T06:31:44.213Z,10.76
2023-03-22T06:33:48.076Z,10.83
2023-03-22T06:36:05.803Z,10.74
2023-03-22T06:38:15.756Z,10.91
2023-03-22T06:40:19.916Z,10.94
2023-03-22T06:42:26.058Z,10.98
2023-03-22T06:44:42.263Z,11.05
2023-03-22T06:46:51.123Z,11.09
2023-03-22T06:49:15.377Z,11.10
2023-03-22T06:51:18.928Z,10.63
2023-03-22T06:53:22.749Z,11.23
2023-03-22T06:55:26.335Z,11.29
2023-03-22T06:57:31.505Z,11.31
2023-03-22T06:59:35.058Z,11.32
2023-03-22T07:01:39.107Z,11.34
2023-03-22T07:03:42.611Z,11.31
2023-03-22T07:05:51.702Z,11.40
2023-03-22T07:07:55.580Z,11.45
2023-03-22T07:09:59.193Z,11.46
2023-03-22T07:12:02.686Z,11.44
2023-03-22T07:14:07.912Z,11.50
2023-03-22T07:16:30.401Z,11.41
2023-03-22T07:18:37.046Z,11.39
2023-03-22T07:20:42.534Z,11.52
2023-03-22T07:22:47.026Z,11.50
2023-03-22T07:24:57.600Z,11.62
2023-03-22T07:27:04.623Z,11.68
2023-03-22T07:29:11.581Z,11.81
2023-03-22T07:31:16.394Z,11.80
2023-03-22T07:33:43.987Z,11.83
2023-03-22T07:35:48.074Z,11.92
2023-03-22T07:37:53.151Z,12.13
2023-03-22T07:40:04.130Z,12.11
2023-03-22T07:42:08.103Z,12.12
2023-03-22T07:44:24.987Z,11.99
2023-03-22T07:46:45.574Z,11.94
2023-03-22T07:48:59.735Z,12.19
2023-03-22T07:51:23.101Z,12.13
2023-03-22T07:53:26.921Z,12.15
2023-03-22T07:55:31.025Z,12.28
2023-03-22T07:57:35.038Z,12.41
2023-03-22T07:59:40.311Z,12.32
2023-03-22T08:01:44.923Z,12.32
2023-03-22T08:04:07.047Z,12.35
2023-03-22T08:06:26.785Z,12.48
2023-03-22T08:08:30.407Z,12.40
2023-03-22T08:10:35.820Z,12.47
2023-03-22T08:12:41.571Z,12.63
2023-03-22T08:14:55.177Z,12.77
2023-03-22T08:17:02.181Z,12.64
2023-03-22T08:19:07.481Z,12.85
2023-03-22T08:21:16.849Z,12.92
2023-03-22T08:23:38.515Z,13.04
2023-03-22T08:26:05.317Z,12.67
2023-03-22T08:28:10.329Z,12.14
2023-03-22T08:30:16.559Z,12.83
2023-03-22T08:32:20.816Z,12.74
2023-03-22T08:34:24.287Z,12.77
2023-03-22T08:36:31.240Z,12.95
2023-03-22T08:38:40.104Z,12.22
2023-03-22T08:40:46.745Z,12.82
2023-03-22T08:42:50.516Z,12.93
2023-03-22T08:44:54.313Z,13.07
2023-03-22T08:47:03.134Z,13.12
2023-03-22T08:49:10.341Z,12.94
2023-03-22T08:51:26.371Z,13.17
2023-03-22T08:53:46.711Z,12.95
2023-03-22T08:56:14.986Z,13.03
2023-03-22T08:58:27.254Z,13.03
2023-03-22T09:01:06.391Z,13.20
2023-03-22T09:03:18.586Z,13.09
2023-03-22T09:05:22.125Z,13.21
2023-03-22T09:07:26.076Z,13.11
2023-03-22T09:09:40.865Z,12.87
2023-03-22T09:11:45.695Z,12.26
2023-03-22T09:13:49.408Z,12.80
2023-03-22T09:15:53.846Z,12.83
2023-03-22T09:18:03.198Z,13.10
2023-03-22T09:20:12.713Z,13.00
2023-03-22T09:22:18.285Z,13.00
2023-03-22T09:24:25.179Z,13.10
2023-03-22T09:26:31.373Z,13.14
2023-03-22T09:28:38.197Z,13.15
2023-03-22T09:30:45.486Z,12.48
2023-03-22T09:32:52.079Z,13.14
2023-03-22T09:34:56.638Z,13.16
2023-03-22T09:37:04.777Z,13.20
2023-03-22T09:39:18.483Z,13.31
2023-03-22T09:41:37.179Z,13.26
2023-03-22T09:43:44.675Z,13.26
2023-03-22T09:45:53.111Z,13.48
2023-03-22T09:47:59.248Z,13.52
2023-03-22T09:50:08.112Z,12.95
2023-03-22T09:52:16.164Z,13.14
2023-03-22T09:54:22.022Z,13.59
2023-03-22T09:56:28.640Z,13.29
2023-03-22T09:58:37.056Z,13.26
2023-03-22T10:00:44.949Z,13.43
2023-03-22T10:02:58.467Z,13.65
2023-03-22T10:05:11.585Z,13.53
2023-03-22T10:07:27.273Z,13.54
2023-03-22T10:09:36.312Z,13.33
2023-03-22T10:11:46.201Z,13.11
2023-03-22T10:14:01.333Z,12.97
2023-03-22T10:16:07.820Z,13.18
2023-03-22T10:18:17.086Z,13.43
2023-03-22T10:20:31.609Z,13.58
2023-03-22T10:22:41.607Z,13.22
2023-03-22T10:24:49.940Z,13.24
2023-03-22T10:26:54.562Z,13.82
2023-03-22T10:29:04.012Z,13.77
2023-03-22T10:31:14.168Z,13.71
2023-03-22T10:33:24.708Z,13.62
2023-03-22T10:35:28.246Z,13.79
2023-03-22T10:37:37.630Z,13.77
2023-03-22T10:39:44.831Z,13.71
2023-03-22T10:41:50.068Z,13.93
2023-03-22T10:43:56.200Z,14.08
2023-03-22T10:46:02.400Z,13.60
2023-03-22T10:48:11.492Z,14.10
2023-03-22T10:50:21.248Z,14.10
2023-03-22T10:52:39.598Z,14.07
2023-03-22T10:54:43.193Z,14.06
2023-03-22T10:56:46.867Z,13.92
2023-03-22T10:58:51.545Z,13.72
2023-03-22T11:01:01.000Z,13.85
2023-03-22T11:03:07.120Z,13.66
2023-03-22T11:05:22.969Z,13.79
2023-03-22T11:07:37.181Z,13.92
2023-03-22T11:09:40.787Z,13.81
2023-03-22T11:11:50.870Z,13.66
2023-03-22T11:14:02.642Z,13.62
2023-03-22T11:16:06.865Z,13.69
2023-03-22T11:18:15.809Z,13.61
2023-03-22T11:20:20.915Z,13.50
2023-03-22T11:22:31.477Z,13.44
2023-03-22T11:24:36.852Z,13.32
2023-03-22T11:26:41.628Z,13.39
2023-03-22T11:28:48.988Z,13.30
2023-03-22T11:31:04.120Z,12.66
2023-03-22T11:33:18.540Z,13.39
2023-03-22T11:35:25.609Z,13.39
2023-03-22T11:37:29.423Z,13.29
2023-03-22T11:39:32.847Z,13.31
2023-03-22T11:41:40.338Z,12.75
2023-03-22T11:43:48.846Z,13.41
2023-03-22T11:45:57.574Z,13.32
2023-03-22T11:48:04.209Z,13.36
2023-03-22T11:50:10.740Z,13.49
2023-03-22T11:52:18.547Z,13.30
2023-03-22T11:54:29.924Z,13.38
2023-03-22T11:56:33.419Z,13.20
2023-03-22T11:59:01.118Z,13.35
2023-03-22T12:01:05.948Z,13.33
2023-03-22T12:03:16.369Z,13.25
2023-03-22T12:05:23.582Z,13.13
2023-03-22T12:07:29.371Z,13.33
2023-03-22T12:09:40.907Z,12.60
2023-03-22T12:11:48.012Z,13.32
2023-03-22T12:13:58.590Z,13.37
2023-03-22T12:16:07.382Z,13.45
2023-03-22T12:18:17.141Z,13.20
2023-03-22T12:20:31.717Z,12.74
2023-03-22T12:22:40.311Z,13.33
2023-03-22T12:24:43.857Z,13.21
2023-03-22T12:26:47.739Z,13.23
2023-03-22T12:28:57.296Z,13.08
2023-03-22T12:31:07.794Z,13.13
2023-03-22T12:33:19.028Z,12.53
2023-03-22T12:35:26.366Z,13.21
2023-03-22T12:37:34.960Z,13.18
2023-03-22T12:39:41.987Z,13.07
2023-03-22T12:41:49.667Z,12.42
2023-03-22T12:43:56.246Z,12.97
2023-03-22T12:46:02.328Z,12.44
2023-03-22T12:48:16.008Z,13.10
2023-03-22T12:50:22.517Z,13.02
2023-03-22T12:52:44.682Z,12.98
2023-03-22T12:54:51.605Z,12.94
2023-03-22T12:56:56.114Z,12.93
2023-03-22T12:59:04.529Z,13.06
2023-03-22T13:01:20.401Z,13.03
2023-03-22T13:03:29.780Z,13.12
2023-03-22T13:05:35.339Z,13.10
2023-03-22T13:07:51.462Z,12.97
2023-03-22T13:09:54.979Z,13.04
2023-03-22T13:12:29.960Z,12.99
2023-03-22T13:14:57.740Z,13.02
2023-03-22T13:17:01.694Z,12.94
2023-03-22T13:19:26.676Z,13.08
2023-03-22T13:21:33.008Z,13.11
2023-03-22T13:23:36.950Z,13.07
2023-03-22T13:25:59.343Z,13.20
2023-03-22T13:28:05.155Z,13.01
2023-03-22T13:30:18.485Z,13.21
2023-03-22T13:32:30.622Z,13.16
2023-03-22T13:34:39.809Z,13.12
2023-03-22T13:36:52.141Z,13.33
2023-03-22T13:39:02.764Z,13.26
2023-03-22T13:41:09.008Z,13.41
2023-03-22T13:43:22.938Z,13.55
2023-03-22T13:45:32.355Z,13.46
2023-03-22T13:47:39.436Z,13.32
2023-03-22T13:49:55.017Z,13.36
2023-03-22T13:52:03.107Z,13.41
2023-03-22T13:54:11.462Z,13.40
2023-03-22T13:56:29.319Z,13.56
2023-03-22T13:58:38.415Z,13.60
2023-03-22T14:00:54.707Z,13.71
2023-03-22T14:03:02.414Z,13.63
2023-03-22T14:05:16.451Z,13.52
2023-03-22T14:07:25.243Z,13.50
2023-03-22T14:09:32.525Z,13.54
2023-03-22T14:11:45.063Z,13.53
2023-03-22T14:13:52.358Z,13.40
2023-03-22T14:16:00.107Z,13.39
2023-03-22T14:18:10.787Z,13.44
2023-03-22T14:20:19.615Z,13.49
